Flight Track Log - Related Links

Times and Time Zones

All times are in EDT time to prevent confusion due to time zone crossing. See the EJA941 flight status page for this flight to view local times or setup timezone preferences in your user account.

Time Position Orientation Groundspeed Altitude Reporting Facility
EDT Latitude Longitude Course Direction KTS MPH feet Rate Location/Type
Wed 04:07:43 PM 34.0000 -118.5000 53° Northeast 190 219 2,400  Level Southern California TRACON
Wed 04:08:38 PM 34.0000 -118.5667 270° West 222 255 5,100 2,173 Climbing Southern California TRACON
Wed 04:09:50 PM 34.0478 -118.6414 308° West 283 326 7,000 851 Climbing Los Angeles Center
Wed 04:10:52 PM 34.1128 -118.6189 16° North 295 339 7,000  Level Los Angeles Center
Wed 04:11:54 PM 34.1814 -118.5311 47° Northeast 297 342 7,000 774 Level Los Angeles Center
Wed 04:12:56 PM 34.2406 -118.4617 44° Northeast 296 341 8,600 1,742 Climbing Los Angeles Center
Wed 04:13:00 PM 34.3698 -118.4450 53° Northeast  Level FlightAware Approximate
Wed 04:13:58 PM 34.3200 -118.4133 27° Northeast 320 368 10,600  Level Los Angeles Center
Wed 04:15:00 PM 34.4039 -118.3656 25° Northeast 332 382 12,600 1,776 Climbing Los Angeles Center
Wed 04:16:03 PM 34.4833 -118.3025 33° Northeast 347 399 14,300 1,584 Climbing Los Angeles Center
Wed 04:17:05 PM 34.5425 -118.2064 53° Northeast 355 409 15,900 1,597 Climbing Los Angeles Center
Wed 04:18:07 PM 34.6103 -118.0972 53° Northeast 369 425 17,600 1,403 Climbing Los Angeles Center
Wed 04:19:09 PM 34.6406 -117.9750 73° East 382 440 18,800 1,161 Climbing Los Angeles Center
Wed 04:20:11 PM 34.6547 -117.8450 82° East 390 449 20,000 1,258 Climbing Los Angeles Center
Wed 04:21:13 PM 34.6831 -117.6844 78° East 410 472 21,400 1,258 Climbing Los Angeles Center
Wed 04:22:15 PM 34.7167 -117.5489 73° East 423 487 22,600 1,152 Climbing Los Angeles Center
Wed 04:23:18 PM 34.7522 -117.4097 73° East 434 499 23,800 1,152 Climbing Los Angeles Center
Wed 04:24:20 PM 34.7875 -117.2700 73° East 438 504 25,000 1,161 Climbing Los Angeles Center
Wed 04:25:22 PM 34.8231 -117.1269 73° East 446 513 26,200 1,258 Climbing Los Angeles Center
Wed 04:26:24 PM 34.8733 -116.9572 70° East 447 514 27,600 1,258 Climbing Los Angeles Center
Wed 04:27:26 PM 34.9542 -116.8367 51° Northeast 460 529 28,800 1,161 Climbing Los Angeles Center
Wed 04:28:28 PM 35.0375 -116.7144 50° Northeast 468 539 30,000 1,161 Climbing Los Angeles Center
Wed 04:29:30 PM 35.1222 -116.5911 50° Northeast 474 545 31,200 1,258 Climbing Los Angeles Center
Wed 04:30:32 PM 35.2250 -116.4400 50° Northeast 480 552 32,600 864 Climbing Los Angeles Center
Wed 04:31:35 PM 35.3122 -116.3097 51° Northeast 488 562 33,000 192 Climbing Los Angeles Center
Wed 04:32:37 PM 35.4047 -116.1722 50° Northeast 509 586 33,000 194 Level Los Angeles Center
Wed 04:33:39 PM 35.5003 -116.0292 51° Northeast 537 618 33,400 677 Climbing Los Angeles Center
Wed 04:34:41 PM 35.5961 -115.8831 51° Northeast 538 619 34,400 968 Climbing Los Angeles Center
Wed 04:35:43 PM 35.6903 -115.7453 50° Northeast 533 613 35,400 1,065 Climbing Los Angeles Center
Wed 04:36:45 PM 35.8014 -115.5806 50° Northeast 527 606 36,600 1,016 Climbing Los Angeles Center
Wed 04:37:47 PM 35.8933 -115.4417 51° Northeast 527 606 37,500 912 Climbing Los Angeles Center
Wed 04:38:50 PM 35.9853 -115.3033 51° Northeast 527 606 38,500 960 Climbing Los Angeles Center
Wed 04:39:52 PM 36.0756 -115.1642 51° Northeast 525 604 39,500 1,065 Climbing Los Angeles Center
Wed 04:40:54 PM 36.1964 -115.0100 46° Northeast 525 604 40,700 726 Climbing Los Angeles Center
Wed 04:41:56 PM 36.2978 -114.8814 46° Northeast 525 604 41,000 145 Climbing Los Angeles Center
Wed 04:42:58 PM 36.4006 -114.7492 46° Northeast 531 611 41,000  Level Los Angeles Center
Wed 04:44:00 PM 36.5039 -114.6131 47° Northeast 540 621 41,000  Level Los Angeles Center
Wed 04:45:02 PM 36.6083 -114.4769 46° Northeast 543 625 41,000 150 Level Los Angeles Center
Wed 04:46:40 PM 36.7728 -114.2550 47° Northeast 545 627 41,400 642 Climbing Salt Lake Center
Wed 04:47:41 PM 36.8581 -114.0778 59° Northeast 522 601 42,700 780 Climbing Salt Lake Center
Wed 04:48:43 PM 36.9311 -113.9264 59° Northeast 512 589 43,000 145 Climbing Salt Lake Center
Wed 04:49:45 PM 37.0047 -113.7714 59° Northeast 517 595 43,000  Level Salt Lake Center
Wed 04:50:47 PM 37.0797 -113.6158 59° Northeast 522 601 43,000  Level Salt Lake Center
Wed 04:51:49 PM 37.1533 -113.4597 59° Northeast 523 602 43,000  Level Salt Lake Center
Wed 04:52:51 PM 37.2414 -113.2708 60° Northeast 525 604 43,000  Level Salt Lake Center
Wed 04:53:52 PM 37.3144 -113.1139 60° Northeast 523 602 43,000  Level Salt Lake Center
Wed 04:54:22 PM 37.3444 -113.0497 60° Northeast 524 603 43,000  Level Los Angeles Center
Wed 04:55:24 PM 37.4289 -112.8628 60° Northeast 520 598 43,000  Level Los Angeles Center
Wed 04:55:56 PM 37.4561 -112.8000 61° Northeast 524 603 43,000  Level Salt Lake Center
Wed 04:56:58 PM 37.5453 -112.6136 59° Northeast 530 610 43,000  Level Salt Lake Center
Wed 04:57:28 PM 37.5747 -112.5517 59° Northeast 527 606 43,000  Level Los Angeles Center
Wed 04:58:30 PM 37.6475 -112.3953 60° Northeast 522 601 43,000  Level Los Angeles Center
Wed 04:59:03 PM 37.6911 -112.3006 60° Northeast 524 603 43,000  Level Salt Lake Center
Wed 05:00:05 PM 37.7761 -112.1506 54° Northeast 526 605 43,000  Level Salt Lake Center
Wed 05:01:07 PM 37.8628 -112.0025 53° Northeast 525 604 43,000  Level Salt Lake Center
Wed 05:02:04 PM 37.9503 -111.8514 54° Northeast 530 610 43,000  Level Denver Center
Wed 05:03:06 PM 38.0367 -111.7019 54° Northeast 527 606 43,000  Level Denver Center
Wed 05:04:08 PM 38.1206 -111.5522 55° Northeast 524 603 43,000  Level Denver Center
Wed 05:05:10 PM 38.2222 -111.3744 54° Northeast 521 600 43,000  Level Denver Center
Wed 05:06:12 PM 38.3050 -111.2244 55° Northeast 519 597 43,000  Level Denver Center
Wed 05:07:19 PM 38.3908 -111.0761 54° Northeast 520 598 43,000  Level Salt Lake Center
Wed 05:08:20 PM 38.4733 -110.9278 55° Northeast 516 594 43,000  Level Salt Lake Center
Wed 05:09:22 PM 38.5725 -110.7492 55° Northeast 515 593 43,000  Level Salt Lake Center
Wed 05:10:24 PM 38.6558 -110.5997 54° Northeast 516 594 43,000  Level Salt Lake Center
Wed 05:11:22 PM 38.7361 -110.4486 56° Northeast 515 593 43,000  Level Denver Center
Wed 05:12:24 PM 38.8189 -110.2981 55° Northeast 516 594 43,000  Level Denver Center
Wed 05:13:26 PM 38.9008 -110.1464 55° Northeast 518 596 43,000  Level Denver Center
Wed 05:14:28 PM 38.9819 -109.9939 56° Northeast 518 596 43,000  Level Denver Center
Wed 05:15:30 PM 39.0642 -109.8422 55° Northeast 518 596 43,000  Level Denver Center
Wed 05:16:32 PM 39.1606 -109.6617 55° Northeast 520 598 43,000  Level Denver Center
Wed 05:17:37 PM 39.2486 -109.5025 54° Northeast 521 600 43,000  Level Salt Lake Center
Wed 05:18:37 PM 39.3319 -109.3414 56° Northeast 523 602 43,000  Level Denver Center
Wed 05:19:41 PM 39.4117 -109.1942 55° Northeast 521 600 43,000  Level Salt Lake Center
Wed 05:20:41 PM 39.5003 -109.0239 56° Northeast 525 604 43,000  Level Denver Center
Wed 05:21:43 PM 39.5811 -108.8692 56° Northeast 521 600 43,000  Level Denver Center
Wed 05:22:45 PM 39.6694 -108.7000 56° Northeast 524 603 43,000  Level Denver Center
Wed 05:23:47 PM 39.7389 -108.5650 56° Northeast 525 604 43,000  Level Denver Center
Wed 05:24:49 PM 39.8206 -108.4050 56° Northeast 528 608 43,000  Level Denver Center
Wed 05:25:51 PM 39.9211 -108.2133 56° Northeast 526 605 43,000  Level Denver Center
Wed 05:26:53 PM 39.9914 -108.0703 57° Northeast 506 582 43,000  Level Denver Center
Wed 05:27:55 PM 40.0806 -107.8919 57° Northeast 524 603 43,000  Level Denver Center
Wed 05:28:57 PM 40.1497 -107.7333 60° Northeast 528 608 43,000  Level Denver Center
Wed 05:29:59 PM 40.2322 -107.5464 60° Northeast 531 611 43,000  Level Denver Center
Wed 05:31:01 PM 40.3028 -107.3856 60° Northeast 534 615 43,000  Level Denver Center
Wed 05:32:03 PM 40.3839 -107.1972 60° Northeast 532 612 43,000  Level Denver Center
Wed 05:33:05 PM 40.4539 -107.0372 60° Northeast 532 612 43,000  Level Denver Center
Wed 05:34:07 PM 40.5342 -106.8494 61° Northeast 530 610 43,000  Level Denver Center
Wed 05:35:09 PM 40.6069 -106.6786 61° Northeast 532 612 43,000  Level Denver Center
Wed 05:36:11 PM 40.6800 -106.5053 61° Northeast 537 618 43,000  Level Denver Center
Wed 05:37:13 PM 40.7531 -106.3317 61° Northeast 533 613 43,000  Level Denver Center
Wed 05:38:15 PM 40.8253 -106.1556 62° Northeast 534 615 43,000  Level Denver Center
Wed 05:39:17 PM 40.9086 -105.9583 61° Northeast 536 617 43,000  Level Denver Center
Wed 05:40:19 PM 40.9808 -105.7844 61° Northeast 535 616 43,000  Level Denver Center
Wed 05:41:22 PM 41.0533 -105.6044 62° Northeast 534 615 43,000  Level Denver Center
Wed 05:42:24 PM 41.1206 -105.4403 61° Northeast 532 612 43,000 48 Level Denver Center
Wed 05:43:26 PM 41.1989 -105.2453 62° Northeast 534 615 43,100 194 Climbing Denver Center
Wed 05:44:28 PM 41.2667 -105.0803 61° Northeast 533 613 43,400 435 Climbing Denver Center
Wed 05:45:30 PM 41.3431 -104.8836 63° Northeast 536 617 44,000 339 Climbing Denver Center
Wed 05:46:32 PM 41.4094 -104.7233 61° Northeast 522 601 44,100 290 Climbing Denver Center
Wed 05:47:34 PM 41.4850 -104.5314 62° Northeast 525 604 44,600 290 Climbing Denver Center
Wed 05:48:36 PM 41.5503 -104.3664 62° Northeast 527 606 44,700 48 Climbing Denver Center
Wed 05:49:38 PM 41.6261 -104.1744 62° Northeast 526 605 44,700 48 Level Denver Center
Wed 05:50:40 PM 41.6906 -104.0075 63° Northeast 529 609 44,800 97 Climbing Denver Center
Wed 05:51:42 PM 41.7653 -103.8139 63° Northeast 529 609 44,900 97 Climbing Denver Center
Wed 05:52:44 PM 41.8300 -103.6461 63° Northeast 530 610 45,000 48 Climbing Denver Center
Wed 05:53:46 PM 41.8972 -103.4450 66° East 532 612 45,000  Level Denver Center
Wed 05:54:48 PM 41.9242 -103.2597 79° East 530 610 45,000  Level Denver Center
Wed 05:55:50 PM 41.9550 -103.0411 79° East 533 613 45,000  Level Denver Center
Wed 05:56:52 PM 41.9803 -102.8567 79° East 527 606 45,000  Level Denver Center
Wed 05:57:54 PM 42.0056 -102.6700 80° East 529 609 45,000  Level Denver Center
Wed 05:58:56 PM 42.0347 -102.4547 80° East 526 605 45,000  Level Denver Center
Wed 05:59:58 PM 42.0583 -102.2714 80° East 523 602 45,000  Level Denver Center
Wed 06:01:00 PM 42.0889 -102.0464 80° East 527 606 45,000  Level Denver Center
Wed 06:02:03 PM 42.1131 -101.8608 80° East 525 604 45,000  Level Denver Center
Wed 06:03:05 PM 42.1406 -101.6439 80° East 525 604 45,000  Level Denver Center
Wed 06:04:07 PM 42.1631 -101.4608 81° East 520 598 45,000  Level Denver Center
Wed 06:05:09 PM 42.1861 -101.2775 80° East 517 595 45,000  Level Denver Center
Wed 06:06:11 PM 42.2117 -101.0631 81° East 518 596 45,000  Level Denver Center
Wed 06:07:13 PM 42.2331 -100.8806 81° East 515 593 45,000  Level Denver Center
Wed 06:08:15 PM 42.2583 -100.6700 81° East 511 588 45,000  Level Denver Center
Wed 06:09:17 PM 42.2786 -100.4850 82° East 515 593 45,000  Level Denver Center
Wed 06:10:19 PM 42.3031 -100.2717 81° East 515 593 45,000  Level Denver Center
Wed 06:11:21 PM 42.3239 -100.0883 81° East 515 593 45,000  Level Denver Center
Wed 06:12:23 PM 42.3469 -99.8731 82° East 517 595 45,000  Level Denver Center
Wed 06:13:25 PM 42.3675 -99.6889 81° East 517 595 45,000  Level Denver Center
Wed 06:14:00 PM 42.3803 -99.5689 82° East 517 595 45,000  Level Minneapolis Center
Wed 06:15:02 PM 42.4000 -99.3753 82° East 517 595 45,000  Level Minneapolis Center
Wed 06:16:04 PM 42.4211 -99.1814 82° East 519 597 45,000  Level Minneapolis Center
Wed 06:18:08 PM 42.4606 -98.7922 82° East 519 597 45,000  Level Minneapolis Center
Wed 06:19:10 PM 42.4764 -98.5983 84° East 518 596 45,000  Level Minneapolis Center
Wed 06:20:12 PM 42.4875 -98.3644 86° East 518 596 45,000  Level Minneapolis Center
Wed 06:21:14 PM 42.4961 -98.1692 87° East 519 597 45,000  Level Minneapolis Center
Wed 06:22:16 PM 42.5058 -97.9753 86° East 515 593 45,000  Level Minneapolis Center
Wed 06:23:18 PM 42.5139 -97.7894 87° East 517 595 45,000  Level Minneapolis Center
Wed 06:24:20 PM 42.5192 -97.6372 87° East 512 589 45,000  Level Minneapolis Center
Wed 06:25:22 PM 42.5297 -97.4039 86° East 514 592 45,000  Level Minneapolis Center
Wed 06:26:24 PM 42.5389 -97.1719 87° East 513 590 45,000  Level Minneapolis Center
Wed 06:27:26 PM 42.5453 -96.9789 87° East 512 589 45,000  Level Minneapolis Center
Wed 06:28:28 PM 42.5522 -96.7853 87° East 513 590 45,000  Level Minneapolis Center
Wed 06:29:31 PM 42.5589 -96.5903 87° East 513 590 45,000  Level Minneapolis Center
Wed 06:30:33 PM 42.5658 -96.3978 87° East 512 589 45,000  Level Minneapolis Center
Wed 06:31:35 PM 42.5711 -96.2033 88° East 513 590 45,000  Level Minneapolis Center
Wed 06:32:49 PM 42.5761 -96.0100 88° East 513 590 45,000  Level Minneapolis Center
Wed 06:33:51 PM 42.5833 -95.7392 88° East 513 590 45,000  Level Minneapolis Center
Wed 06:34:53 PM 42.5872 -95.5864 88° East 509 586 45,000  Level Minneapolis Center
Wed 06:35:55 PM 42.5928 -95.3539 88° East 510 587 45,000  Level Minneapolis Center
Wed 06:36:57 PM 42.5967 -95.1617 88° East 511 588 45,000  Level Minneapolis Center
Wed 06:38:01 PM 42.6003 -94.9694 88° East 510 587 45,000  Level Minneapolis Center
Wed 06:39:04 PM 42.6047 -94.7389 88° East 509 586 45,000  Level Minneapolis Center
Wed 06:40:06 PM 42.6061 -94.5619 89° East 514 592 45,000  Level Minneapolis Center
Wed 06:41:08 PM 42.5928 -94.3731 95° East 509 586 45,000  Level Minneapolis Center
Wed 06:42:22 PM 42.5781 -94.1461 95° East 511 588 45,000  Level Minneapolis Center
Wed 06:43:24 PM 42.5653 -93.9189 94° East 508 585 45,000  Level Minneapolis Center
Wed 06:44:26 PM 42.5611 -93.7300 92° East 508 585 45,000  Level Minneapolis Center
Wed 06:45:28 PM 42.5350 -93.5436 101° East 508 585 45,000  Level Minneapolis Center
Wed 06:46:30 PM 42.5097 -93.3558 100° East 512 589 45,000  Level Minneapolis Center
Wed 06:47:33 PM 42.4786 -93.1303 101° East 512 589 45,000  Level Minneapolis Center
Wed 06:48:35 PM 42.4511 -92.9447 101° East 511 588 45,000  Level Minneapolis Center
Wed 06:49:37 PM 42.4244 -92.7539 101° East 518 596 45,000  Level Minneapolis Center
Wed 06:50:39 PM 42.3972 -92.5647 101° East 518 596 45,000  Level Minneapolis Center
Wed 06:51:41 PM 42.3697 -92.3764 101° East 519 597 45,000  Level Minneapolis Center
Wed 06:52:43 PM 42.3364 -92.1517 101° East 518 596 45,000  Level Minneapolis Center
Wed 06:53:45 PM 42.3081 -91.9647 102° East 517 595 45,000  Level Minneapolis Center
Wed 06:54:47 PM 42.2794 -91.7792 102° East 516 594 45,000  Level Minneapolis Center
Wed 06:55:49 PM 42.2508 -91.5925 102° East 517 595 45,000  Level Minneapolis Center
Wed 06:56:51 PM 42.2153 -91.3689 102° East 517 595 45,000  Level Minneapolis Center
Wed 06:57:52 PM 42.1919 -91.2208 102° East 516 594 45,000  Level Minneapolis Center
Wed 06:59:18 PM 42.1450 -90.9258 102° East 509 586 45,000  Level Chicago Center
Wed 07:00:20 PM 42.1147 -90.7406 102° East 513 590 45,000  Level Chicago Center
Wed 07:01:22 PM 42.0786 -90.5175 102° East 515 593 45,000  Level Chicago Center
Wed 07:02:25 PM 42.0486 -90.3308 102° East 517 595 45,000  Level Chicago Center
Wed 07:03:27 PM 42.0186 -90.1458 102° East 514 592 45,000  Level Chicago Center
Wed 07:04:29 PM 41.9872 -89.9628 103° East 511 588 45,000  Level Chicago Center
Wed 07:05:31 PM 41.9553 -89.7797 103° East 502 578 45,000  Level Chicago Center
Wed 07:06:33 PM 41.9169 -89.5589 103° East 509 586 45,000  Level Chicago Center
Wed 07:07:35 PM 41.8856 -89.3739 103° East 512 589 45,000  Level Chicago Center
Wed 07:08:37 PM 41.8533 -89.1886 103° East 513 590 45,000  Level Chicago Center
Wed 07:09:39 PM 41.8181 -89.0058 104° East 509 586 45,000  Level Chicago Center
Wed 07:10:41 PM 41.7858 -88.8214 103° East 510 587 45,000  Level Chicago Center
Wed 07:11:43 PM 41.7456 -88.6028 104° East 508 585 45,000  Level Chicago Center
Wed 07:12:45 PM 41.7119 -88.4181 104° East 510 587 45,000  Level Chicago Center
Wed 07:13:47 PM 41.6783 -88.2322 104° East 509 586 45,000  Level Chicago Center
Wed 07:14:50 PM 41.6442 -88.0461 104° East 507 583 45,000  Level Chicago Center
Wed 07:16:44 PM 41.5781 -87.6975 104° East 514 592 45,000  Level Indianapolis Center
Wed 07:17:46 PM 41.5417 -87.5164 105° East 512 589 45,000  Level Indianapolis Center
Wed 07:18:58 PM 41.4931 -87.2692 105° East 510 587 45,000  Level Chicago Center
Wed 07:20:00 PM 41.4581 -87.0875 104° East 510 587 45,000  Level Chicago Center
Wed 07:21:02 PM 41.4219 -86.9067 105° East 508 585 45,000  Level Chicago Center
Wed 07:22:04 PM 41.3814 -86.7106 105° East 505 581 45,000  Level Chicago Center
Wed 07:23:06 PM 41.3461 -86.5358 105° East 494 568 45,000  Level Chicago Center
Wed 07:24:08 PM 41.3106 -86.3611 105° East 492 566 45,000  Level Chicago Center
Wed 07:25:10 PM 41.2747 -86.1867 105° East 493 567 45,000  Level Chicago Center
Wed 07:26:12 PM 41.2375 -86.0100 106° East 500 575 45,000  Level Chicago Center
Wed 07:27:15 PM 41.1939 -85.7950 105° East 507 583 45,000  Level Chicago Center
Wed 07:28:17 PM 41.1539 -85.6156 106° East 512 589 45,000  Level Chicago Center
Wed 07:29:19 PM 41.1153 -85.4342 106° East 515 593 45,000  Level Chicago Center
Wed 07:31:19 PM 41.0361 -85.0650 106° East 513 590 45,000  Level Indianapolis Center
Wed 07:32:21 PM 40.9969 -84.8850 106° East 512 589 45,000  Level Indianapolis Center
Wed 07:33:22 PM 40.9575 -84.7042 106° East 510 587 45,000  Level Indianapolis Center
Wed 07:34:24 PM 40.9106 -84.4933 106° East 509 586 45,000  Level Indianapolis Center
Wed 07:35:25 PM 40.8700 -84.3131 107° East 508 585 45,000  Level Indianapolis Center
Wed 07:36:27 PM 40.8300 -84.1356 107° East 504 580 45,000  Level Indianapolis Center
Wed 07:37:28 PM 40.7900 -83.9600 107° East 496 571 45,000  Level Indianapolis Center
Wed 07:38:30 PM 40.7478 -83.7819 107° East 503 579 45,000  Level Indianapolis Center
Wed 07:39:32 PM 40.7072 -83.6042 107° East 502 578 45,000  Level Indianapolis Center
Wed 07:40:33 PM 40.6644 -83.4264 108° East 505 581 45,000  Level Indianapolis Center
Wed 07:41:35 PM 40.6136 -83.2500 111° Southeast 511 588 45,000  Level Indianapolis Center
Wed 07:42:36 PM 40.5561 -83.0564 111° Southeast 516 594 45,000  Level Indianapolis Center
Wed 07:43:38 PM 40.5086 -82.8947 111° Southeast 516 594 45,000  Level Indianapolis Center
Wed 07:44:39 PM 40.4519 -82.7042 111° Southeast 513 590 45,000  Level Indianapolis Center
Wed 07:45:41 PM 40.3994 -82.5303 112° Southeast 512 589 45,000  Level Indianapolis Center
Wed 07:46:43 PM 40.3478 -82.3575 111° Southeast 508 585 45,000  Level Indianapolis Center
Wed 07:47:44 PM 40.2953 -82.1850 112° Southeast 508 585 45,000  Level Indianapolis Center
Wed 07:48:46 PM 40.2369 -81.9944 112° Southeast 512 589 45,000  Level Indianapolis Center
Wed 07:49:47 PM 40.1825 -81.8181 112° Southeast 518 596 45,000  Level Indianapolis Center
Wed 07:50:49 PM 40.1239 -81.6300 112° Southeast 522 601 45,000  Level Indianapolis Center
Wed 07:51:51 PM 40.0697 -81.4556 112° Southeast 515 593 45,000  Level Indianapolis Center
Wed 07:52:52 PM 40.0183 -81.2897 112° Southeast 494 568 45,000 -49 Level Indianapolis Center
Wed 07:53:54 PM 39.9667 -81.1275 113° Southeast 484 557 44,900  Descending Indianapolis Center
Wed 07:54:55 PM 39.9103 -80.9506 113° Southeast 499 574 45,000 -244 Climbing Indianapolis Center
Wed 07:55:57 PM 39.8553 -80.7778 112° Southeast 513 590 44,400 -823 Descending Indianapolis Center
Wed 07:56:59 PM 39.7983 -80.6000 113° Southeast 527 606 43,300 -1,181 Descending Indianapolis Center
Wed 07:58:04 PM 39.7356 -80.3994 112° Southeast 515 593 41,900 -1,296 Descending Cleveland Center
Wed 07:59:04 PM 39.6811 -80.2297 113° Southeast 515 593 40,600 -2,450 Descending Cleveland Center
Wed 08:00:53 PM 39.5817 -79.9267 113° Southeast 533 613 35,000 -3,266 Descending Washington Center
Wed 08:01:53 PM 39.5378 -79.7492 108° East 521 600 31,400 -4,017 Descending Washington Center
Wed 08:02:51 PM 39.5061 -79.5753 103° East 507 583 27,100 -2,441 Descending Washington Center
Wed 08:03:51 PM 39.4781 -79.4175 103° East 482 555 26,600 -1,240 Descending Washington Center
Wed 08:04:52 PM 39.4453 -79.2600 105° East 461 531 24,600 -2,083 Descending Washington Center
Wed 08:05:52 PM 39.4044 -79.0942 108° East 461 531 22,400 -2,182 Descending Washington Center
Wed 08:06:53 PM 39.3694 -78.9258 105° East 467 537 20,200 -2,168 Descending Washington Center
Wed 08:07:51 PM 39.3361 -78.7742 106° East 473 544 18,100 -1,966 Descending Washington Center
Wed 08:08:52 PM 39.3044 -78.6333 106° East 438 504 16,300 -1,770 Descending Washington Center
Wed 08:09:53 PM 39.2764 -78.5006 105° East 401 461 14,500 -1,765 Descending Washington Center
Wed 08:10:51 PM 39.2483 -78.3708 106° East 385 443 12,800 -1,613 Descending Washington Center
Wed 08:11:52 PM 39.2217 -78.2572 107° East 357 411 11,300 -1,240 Descending Washington Center
Wed 08:12:52 PM 39.1797 -78.1675 121° Southeast 317 365 10,300 -706 Descending Washington Center
Wed 08:13:51 PM 39.1336 -78.0803 124° Southeast 299 344 9,900 -1,250 Descending Washington Center
Wed 08:14:52 PM 39.0894 -77.9983 125° Southeast 287 330 7,800 -1,438 Descending Washington Center
Wed 08:15:52 PM 39.0453 -77.9142 124° Southeast 282 325 7,000 -347 Descending Washington Center
Wed 08:16:53 PM 39.0092 -77.8408 122° Southeast 282 325 7,100 50 Climbing Washington Center
Wed 08:17:51 PM 38.9650 -77.7461 121° Southeast 282 325 7,100  Level Washington Center
Wed 08:18:52 PM 38.9625 -77.6419 92° East 279 321 7,100 -449 Level Washington Center
Wed 08:19:38 PM 39.0000 -77.5833 51° Northeast 303 349 6,300 -643 Descending Potomac TRACON
Wed 08:20:44 PM 39.0833 -77.5667 North 262 302 5,900 -700 Descending Potomac TRACON
Wed 08:21:38 PM 39.1500 -77.5667 360° North 243 280 4,900 -950 Descending Potomac TRACON
Wed 08:22:44 PM 39.1833 -77.5167 49° Northeast 241 277 4,000 -381 Descending Potomac TRACON
Wed 08:23:44 PM 39.1667 -77.4667 113° Southeast 179 206 4,100 -157 Climbing Potomac TRACON
Wed 08:24:39 PM 39.1333 -77.4500 159° South 166 191 3,700 -626 Descending Potomac TRACON
Wed 08:25:39 PM 39.0833 -77.4500 180° South 170 196 2,900 -950 Descending Potomac TRACON
Wed 08:26:39 PM 39.0333 -77.4667 195° South 162 186 1,800 -992 Descending Potomac TRACON
Wed 08:27:40 PM 39.0000 -77.4667 180° South 134 154 900 -885 Descending Potomac TRACON
Wed 08:29:00 PM 38.9474 -77.4599 165° South  Level Estimated
Wed 08:36:00 PM 38.9474 -77.4599 165° South  Level Estimated

Login

Don't have an account? Register now (free) for customized features, flight alerts, and more!